Time;durP1;ratioP1;P1;durP2;ratioP2;P2;SDS_P1;SDS_P2;PMS_P1;PMS_P2;Temp;Humidity;BMP_temperature;BMP_pressure;BME280_temperature;BME280_humidity;BME280_pressure;Samples;Min_cycle;Max_cycle;Signal;HPM_P1;HPM_P2
2023/05/19 00:02:17;;;;;;;13.13;5.90;;;9.80;99.90;;;;;;5029856;28;20022;-73
2023/05/19 00:04:43;;;;;;;18.90;6.22;;;9.70;99.90;;;;;;5018581;28;20017;-73
2023/05/19 00:07:10;;;;;;;15.85;6.28;;;9.70;99.90;;;;;;5024135;28;20037;-73
2023/05/19 00:09:36;;;;;;;13.20;5.82;;;9.70;99.90;;;;;;5018990;28;20048;-77
2023/05/19 00:12:02;;;;;;;16.73;6.25;;;9.60;99.90;;;;;;5025422;28;20045;-75
2023/05/19 00:14:28;;;;;;;17.13;6.43;;;9.60;99.90;;;;;;5031784;28;20018;-74
2023/05/19 00:16:54;;;;;;;15.95;5.75;;;9.60;99.90;;;;;;5039558;28;20026;-72
2023/05/19 00:19:20;;;;;;;16.60;6.07;;;9.50;99.90;;;;;;5023441;28;20026;-74
2023/05/19 00:21:46;;;;;;;14.57;5.70;;;9.50;99.90;;;;;;4999835;28;20032;-72
2023/05/19 00:24:12;;;;;;;14.57;6.13;;;9.40;99.90;;;;;;5032309;28;20771;-73
2023/05/19 00:26:37;;;;;;;14.70;6.30;;;9.40;99.90;;;;;;5026288;28;20046;-73
2023/05/19 00:29:04;;;;;;;18.08;6.30;;;9.40;99.90;;;;;;5022600;28;20482;-75
2023/05/19 00:31:30;;;;;;;19.17;7.18;;;9.40;99.90;;;;;;5011288;28;20482;-74
2023/05/19 00:33:56;;;;;;;19.02;6.72;;;9.30;99.90;;;;;;5029586;28;20026;-74
2023/05/19 00:36:21;;;;;;;20.50;6.82;;;9.30;99.90;;;;;;5017501;28;20522;-77
2023/05/19 00:38:47;;;;;;;17.20;7.90;;;9.30;99.90;;;;;;5018989;28;20042;-72
2023/05/19 00:41:13;;;;;;;15.25;6.03;;;9.30;99.90;;;;;;5030399;28;20022;-73
2023/05/19 00:43:39;;;;;;;18.08;6.68;;;9.30;99.90;;;;;;5017240;28;20112;-77
2023/05/19 00:46:06;;;;;;;20.10;6.97;;;9.30;99.90;;;;;;5009571;28;20030;-75
2023/05/19 00:48:31;;;;;;;18.00;6.32;;;9.20;99.90;;;;;;5002648;28;20030;-74
2023/05/19 00:51:03;;;;;;;16.77;6.40;;;9.20;99.90;;;;;;5002430;28;20035;-75
2023/05/19 00:53:29;;;;;;;18.70;7.68;;;9.20;99.90;;;;;;5001158;28;20083;-73
2023/05/19 00:55:56;;;;;;;20.20;7.60;;;9.20;99.90;;;;;;5007164;28;20406;-73
2023/05/19 00:58:22;;;;;;;22.30;10.18;;;9.20;99.90;;;;;;5008230;28;20160;-75
2023/05/19 01:00:49;;;;;;;23.00;9.18;;;9.10;99.90;;;;;;5004245;28;20027;-75
2023/05/19 01:03:19;;;;;;;16.40;7.32;;;9.10;99.90;;;;;;5011334;28;20033;-73
2023/05/19 01:05:46;;;;;;;17.50;7.30;;;9.10;99.90;;;;;;5006597;28;20455;-73
2023/05/19 01:08:12;;;;;;;20.50;7.28;;;9.10;99.90;;;;;;5006571;28;20050;-78
2023/05/19 01:10:40;;;;;;;16.65;7.38;;;9.10;99.90;;;;;;5008465;28;20104;-72
2023/05/19 01:13:06;;;;;;;18.33;7.82;;;9.10;99.90;;;;;;5008564;28;20034;-72
2023/05/19 01:16:18;;;;;;;18.42;7.25;;;9.10;99.90;;;;;;5003232;28;20018;-74
2023/05/19 01:18:56;;;;;;;19.88;7.40;;;9.10;99.90;;;;;;4998714;28;20030;-72
2023/05/19 01:21:59;;;;;;;17.98;7.22;;;9.10;99.90;;;;;;5002338;28;20038;-77
2023/05/19 01:24:46;;;;;;;22.30;7.88;;;9.10;99.90;;;;;;5003656;28;20022;-73
2023/05/19 01:27:49;;;;;;;20.92;7.75;;;9.00;99.90;;;;;;5009376;28;20022;-73
2023/05/19 01:30:36;;;;;;;18.98;8.00;;;9.10;99.90;;;;;;5011632;28;20038;-73
2023/05/19 01:33:06;;;;;;;22.02;8.45;;;9.00;99.90;;;;;;5006897;28;20029;-74
2023/05/19 01:35:35;;;;;;;19.63;8.68;;;9.00;99.90;;;;;;5011383;28;20018;-73
2023/05/19 01:38:03;;;;;;;19.17;7.20;;;9.00;99.90;;;;;;5006567;28;20035;-76
2023/05/19 01:40:31;;;;;;;21.83;8.27;;;9.00;99.90;;;;;;5004098;28;20038;-73
2023/05/19 01:42:58;;;;;;;18.45;7.97;;;9.00;99.90;;;;;;5008971;28;20029;-76
2023/05/19 01:45:26;;;;;;;20.15;8.23;;;8.90;99.90;;;;;;5007556;28;20825;-71
2023/05/19 01:47:58;;;;;;;23.05;8.57;;;8.90;99.90;;;;;;5007009;28;20029;-72
2023/05/19 01:50:24;;;;;;;20.08;8.55;;;8.90;99.90;;;;;;5005234;28;20034;-72
2023/05/19 01:52:50;;;;;;;21.10;8.38;;;8.90;99.90;;;;;;5008599;28;20196;-73
2023/05/19 01:55:16;;;;;;;19.25;8.77;;;8.90;99.90;;;;;;5008357;28;20029;-76
2023/05/19 01:58:00;;;;;;;21.33;8.60;;;8.90;99.90;;;;;;5012556;28;20354;-74
2023/05/19 02:01:03;;;;;;;24.25;9.02;;;8.90;99.90;;;;;;5018711;28;20030;-73
2023/05/19 02:04:02;;;;;;;21.02;8.38;;;8.80;99.90;;;;;;5001483;28;20025;-73
2023/05/19 02:06:47;;;;;;;21.55;8.50;;;8.80;99.90;;;;;;5018727;28;20093;-73
2023/05/19 02:09:14;;;;;;;23.38;8.50;;;8.80;99.90;;;;;;5027926;28;20025;-73
2023/05/19 02:11:57;;;;;;;18.17;8.35;;;8.80;99.90;;;;;;5018273;28;20091;-75
2023/05/19 02:14:44;;;;;;;21.15;8.85;;;8.80;99.90;;;;;;5024753;28;20090;-72
2023/05/19 02:17:13;;;;;;;21.33;9.07;;;8.80;99.90;;;;;;5012320;28;20482;-74
2023/05/19 02:19:39;;;;;;;20.65;8.60;;;8.70;99.90;;;;;;5010891;28;20553;-73
2023/05/19 02:22:05;;;;;;;20.75;8.65;;;8.70;99.90;;;;;;5012405;28;20144;-74
2023/05/19 02:24:32;;;;;;;21.75;9.48;;;8.70;99.90;;;;;;5011714;28;20037;-73
2023/05/19 02:26:59;;;;;;;21.38;9.10;;;8.70;99.90;;;;;;5016159;28;20135;-76
2023/05/19 02:29:24;;;;;;;20.73;9.05;;;8.70;99.90;;;;;;5023928;28;20026;-72
2023/05/19 02:31:50;;;;;;;22.10;9.70;;;8.70;99.90;;;;;;5028876;28;20120;-76
2023/05/19 02:34:15;;;;;;;19.98;8.95;;;8.60;99.90;;;;;;5017937;28;20108;-77
2023/05/19 02:36:42;;;;;;;23.27;9.73;;;8.60;99.90;;;;;;5029736;28;20041;-72
2023/05/19 02:39:09;;;;;;;17.63;8.85;;;8.60;99.90;;;;;;5022334;28;20084;-72
2023/05/19 02:41:35;;;;;;;26.13;10.02;;;8.60;99.90;;;;;;5022909;28;20105;-72
2023/05/19 02:44:01;;;;;;;21.35;9.82;;;8.60;99.90;;;;;;5028832;28;20161;-72
2023/05/19 02:46:26;;;;;;;22.25;9.02;;;8.60;99.90;;;;;;5017552;28;20076;-73
2023/05/19 02:48:52;;;;;;;24.75;9.70;;;8.60;99.90;;;;;;5028939;28;20105;-72
2023/05/19 02:51:17;;;;;;;24.13;10.98;;;8.60;99.90;;;;;;5023360;28;20508;-72
2023/05/19 02:53:43;;;;;;;22.27;9.40;;;8.50;99.90;;;;;;5016494;28;20037;-73
2023/05/19 02:56:08;;;;;;;19.27;9.48;;;8.50;99.90;;;;;;5027291;28;20116;-72
2023/05/19 02:58:34;;;;;;;21.33;9.80;;;8.50;99.90;;;;;;5017873;28;20466;-74
2023/05/19 03:00:59;;;;;;;21.27;10.05;;;8.50;99.90;;;;;;5029731;28;20038;-73
2023/05/19 03:03:25;;;;;;;20.60;9.68;;;8.50;99.90;;;;;;5015645;28;20022;-73
2023/05/19 03:05:52;;;;;;;23.52;10.13;;;8.40;99.90;;;;;;5015553;28;20040;-72
2023/05/19 03:08:18;;;;;;;22.20;9.25;;;8.40;99.90;;;;;;5015100;28;20076;-72
2023/05/19 03:10:45;;;;;;;21.90;10.05;;;8.40;99.90;;;;;;5014887;28;20501;-72
2023/05/19 03:13:11;;;;;;;22.85;10.52;;;8.40;99.90;;;;;;5015549;28;20034;-72
2023/05/19 03:15:37;;;;;;;22.75;9.85;;;8.40;99.90;;;;;;5019215;28;20564;-71
2023/05/19 03:18:03;;;;;;;24.33;10.13;;;8.40;99.90;;;;;;5027746;28;20045;-76
2023/05/19 03:20:29;;;;;;;22.13;10.30;;;8.40;99.90;;;;;;5021580;28;20026;-76
2023/05/19 03:22:55;;;;;;;25.52;10.43;;;8.40;99.90;;;;;;5022678;28;20033;-72
2023/05/19 03:25:21;;;;;;;26.88;10.60;;;8.40;99.90;;;;;;5030436;28;20028;-71
2023/05/19 03:27:46;;;;;;;24.50;10.93;;;8.40;99.90;;;;;;5019048;28;20022;-73
2023/05/19 03:30:13;;;;;;;23.70;10.35;;;8.40;99.90;;;;;;5025839;28;20098;-74
2023/05/19 03:32:38;;;;;;;23.25;10.25;;;8.40;99.90;;;;;;5026017;28;20041;-74
2023/05/19 03:35:04;;;;;;;21.90;10.85;;;8.40;99.90;;;;;;5019008;28;20022;-70
2023/05/19 03:37:31;;;;;;;22.48;10.20;;;8.40;99.90;;;;;;5030723;28;20029;-71
2023/05/19 03:39:58;;;;;;;22.45;10.23;;;8.40;99.90;;;;;;5017606;28;20394;-74
2023/05/19 03:42:23;;;;;;;28.67;11.27;;;8.40;99.90;;;;;;5020369;28;20030;-71
2023/05/19 03:44:49;;;;;;;22.98;10.88;;;8.40;99.90;;;;;;5016580;28;20497;-75
2023/05/19 03:47:15;;;;;;;21.60;10.13;;;8.40;99.90;;;;;;5017506;28;20021;-71
2023/05/19 03:49:40;;;;;;;24.60;10.73;;;8.40;99.90;;;;;;5029191;28;20473;-72
2023/05/19 03:52:06;;;;;;;22.95;10.88;;;8.40;99.90;;;;;;5043946;28;20044;-72
2023/05/19 03:54:31;;;;;;;24.08;10.75;;;8.40;99.90;;;;;;5044271;28;20033;-73
2023/05/19 03:56:57;;;;;;;24.00;10.65;;;8.40;99.90;;;;;;5027786;28;20053;-74
2023/05/19 03:59:23;;;;;;;25.65;10.63;;;8.50;99.90;;;;;;5018608;28;20057;-70
2023/05/19 04:01:49;;;;;;;23.02;10.65;;;8.50;99.90;;;;;;5029269;28;20533;-71
2023/05/19 04:04:15;;;;;;;24.83;10.52;;;8.50;99.90;;;;;;5028871;28;20048;-71
2023/05/19 04:06:40;;;;;;;27.75;11.38;;;8.50;99.90;;;;;;5015256;28;20462;-72
2023/05/19 04:09:14;;;;;;;26.45;10.98;;;8.60;99.90;;;;;;5020097;28;20060;-71
2023/05/19 04:11:40;;;;;;;23.60;11.23;;;8.60;99.90;;;;;;5025346;28;20042;-71
2023/05/19 04:14:06;;;;;;;25.33;10.68;;;8.60;99.90;;;;;;5024487;28;20393;-74
2023/05/19 04:16:32;;;;;;;24.25;11.10;;;8.60;99.90;;;;;;5027732;28;20026;-72
2023/05/19 04:18:58;;;;;;;24.75;11.10;;;8.70;99.90;;;;;;5016284;28;20022;-71
2023/05/19 04:21:23;;;;;;;25.80;10.65;;;8.70;99.90;;;;;;5026915;28;20033;-71
2023/05/19 04:23:49;;;;;;;26.00;10.50;;;8.70;99.90;;;;;;5021911;28;20390;-74
2023/05/19 04:26:15;;;;;;;25.30;10.50;;;8.80;99.90;;;;;;5014914;28;20042;-74
2023/05/19 04:28:43;;;;;;;26.98;11.52;;;8.80;99.90;;;;;;5011798;28;20109;-73
2023/05/19 04:31:13;;;;;;;21.38;9.80;;;8.90;99.90;;;;;;5000869;28;20041;-70
2023/05/19 04:33:39;;;;;;;21.65;10.07;;;9.00;99.90;;;;;;5016142;28;20109;-72
2023/05/19 04:36:07;;;;;;;23.38;10.30;;;9.00;99.90;;;;;;5018363;28;20057;-73
2023/05/19 04:38:38;;;;;;;22.33;9.40;;;9.10;99.90;;;;;;5028036;28;20033;-69
2023/05/19 04:41:05;;;;;;;23.02;9.00;;;9.20;99.90;;;;;;5016343;28;20021;-71
2023/05/19 04:43:30;;;;;;;19.63;9.65;;;9.20;99.90;;;;;;5013352;28;20038;-74
2023/05/19 04:45:57;;;;;;;25.52;9.55;;;9.30;99.90;;;;;;5013494;28;20374;-73
2023/05/19 04:48:22;;;;;;;20.65;9.50;;;9.40;99.90;;;;;;5014045;28;20054;-71
2023/05/19 04:50:50;;;;;;;24.73;9.07;;;9.40;99.90;;;;;;5015754;28;20073;-73
2023/05/19 04:53:17;;;;;;;24.73;8.95;;;9.50;99.90;;;;;;5010806;28;20108;-72
2023/05/19 04:55:43;;;;;;;22.88;8.32;;;9.50;99.90;;;;;;5021750;28;20030;-72
2023/05/19 04:58:09;;;;;;;24.25;9.07;;;9.70;99.90;;;;;;5023405;28;20033;-72
2023/05/19 05:00:36;;;;;;;19.92;8.98;;;9.70;99.90;;;;;;5016205;28;20037;-72
2023/05/19 05:03:03;;;;;;;23.23;9.02;;;9.80;99.90;;;;;;5012739;28;20061;-70
2023/05/19 05:05:30;;;;;;;23.38;8.65;;;9.90;99.90;;;;;;5012533;28;20030;-71
2023/05/19 05:07:56;;;;;;;20.20;7.57;;;10.00;99.90;;;;;;5022479;28;20048;-72
2023/05/19 05:10:21;;;;;;;22.27;8.38;;;10.10;99.90;;;;;;5015146;28;20037;-70
2023/05/19 05:12:47;;;;;;;17.50;8.15;;;10.20;99.90;;;;;;5010680;28;20030;-71
2023/05/19 05:15:13;;;;;;;23.63;8.52;;;10.30;99.90;;;;;;5018452;28;20034;-72
2023/05/19 05:17:39;;;;;;;25.08;8.63;;;10.40;99.90;;;;;;5016439;28;20040;-71
2023/05/19 05:20:06;;;;;;;18.33;7.30;;;10.50;99.90;;;;;;5026765;28;20033;-71
2023/05/19 05:22:32;;;;;;;21.08;7.28;;;10.60;99.90;;;;;;5037935;28;20060;-71
2023/05/19 05:24:58;;;;;;;19.95;7.70;;;10.80;99.90;;;;;;5024894;28;20032;-71
2023/05/19 05:27:23;;;;;;;20.00;7.25;;;10.90;99.90;;;;;;5015595;28;20068;-71
2023/05/19 05:29:49;;;;;;;19.15;7.22;;;11.00;99.90;;;;;;5029043;28;20089;-71
2023/05/19 05:32:15;;;;;;;21.00;8.05;;;11.20;99.90;;;;;;5012028;28;20046;-71
2023/05/19 05:34:41;;;;;;;23.63;7.38;;;11.30;99.90;;;;;;5017558;28;20033;-71
2023/05/19 05:37:07;;;;;;;17.00;7.05;;;11.50;99.90;;;;;;5020586;28;20022;-71
2023/05/19 05:39:32;;;;;;;20.67;7.53;;;11.60;99.90;;;;;;5024599;28;20411;-71
2023/05/19 05:41:58;;;;;;;19.60;6.97;;;11.80;99.90;;;;;;5012275;28;20171;-71
2023/05/19 05:44:23;;;;;;;17.65;6.40;;;12.00;99.90;;;;;;5020071;28;20036;-72
2023/05/19 05:46:50;;;;;;;19.42;6.85;;;12.20;99.90;;;;;;5020218;28;20052;-72
2023/05/19 05:49:16;;;;;;;21.73;7.03;;;12.40;99.90;;;;;;5021706;28;20033;-71
2023/05/19 05:51:42;;;;;;;18.73;6.50;;;12.70;99.90;;;;;;5027275;28;20065;-71
2023/05/19 05:54:11;;;;;;;17.60;6.03;;;13.00;99.90;;;;;;5015034;28;20037;-71
2023/05/19 05:56:37;;;;;;;13.70;6.28;;;13.40;99.90;;;;;;5021469;28;20571;-71
2023/05/19 05:59:03;;;;;;;19.23;7.57;;;14.00;99.90;;;;;;5017474;28;20057;-71
2023/05/19 06:01:32;;;;;;;16.42;5.80;;;14.60;99.90;;;;;;5016639;28;20026;-71
2023/05/19 06:03:57;;;;;;;20.27;7.10;;;14.90;99.90;;;;;;5012028;28;20038;-72
2023/05/19 06:06:23;;;;;;;15.52;5.72;;;15.30;99.90;;;;;;5021457;28;20026;-72
2023/05/19 06:08:48;;;;;;;11.80;4.85;;;16.00;99.90;;;;;;5026613;28;20025;-72
2023/05/19 06:11:14;;;;;;;13.00;4.95;;;16.50;99.90;;;;;;5024055;28;20030;-71
2023/05/19 06:13:40;;;;;;;16.23;5.60;;;17.00;99.90;;;;;;5019981;28;20068;-71
2023/05/19 06:16:06;;;;;;;9.82;4.45;;;17.20;99.90;;;;;;5030231;28;20441;-71
2023/05/19 06:18:32;;;;;;;16.35;4.97;;;17.70;99.90;;;;;;5016880;28;20476;-71
2023/05/19 06:20:58;;;;;;;13.68;4.25;;;18.30;99.90;;;;;;5015948;28;20061;-70
2023/05/19 06:23:25;;;;;;;16.02;5.10;;;18.80;99.90;;;;;;5017994;28;20124;-70
2023/05/19 06:25:51;;;;;;;13.50;4.78;;;19.30;99.90;;;;;;5024181;28;20112;-71
2023/05/19 06:28:16;;;;;;;14.18;5.45;;;19.70;99.90;;;;;;5022157;28;20553;-71
2023/05/19 06:30:42;;;;;;;12.70;5.25;;;19.90;99.90;;;;;;5024508;28;20088;-71
2023/05/19 06:33:07;;;;;;;10.35;4.40;;;20.20;99.90;;;;;;5017237;28;20026;-71
2023/05/19 06:35:33;;;;;;;14.98;5.25;;;20.10;99.90;;;;;;5032046;28;20120;-71
2023/05/19 06:37:59;;;;;;;15.55;5.22;;;20.20;99.90;;;;;;5019911;28;20036;-71
2023/05/19 06:40:24;;;;;;;8.98;4.47;;;20.50;99.60;;;;;;5033461;28;20053;-71
2023/05/19 06:42:50;;;;;;;16.10;5.95;;;21.00;99.10;;;;;;5024122;28;20018;-71
2023/05/19 06:45:15;;;;;;;12.52;4.45;;;21.50;98.30;;;;;;5029783;28;20040;-71
2023/05/19 06:47:41;;;;;;;12.23;5.00;;;21.80;97.60;;;;;;5018711;28;20021;-70
2023/05/19 06:50:09;;;;;;;12.05;4.32;;;22.00;97.00;;;;;;5028702;28;20033;-71
2023/05/19 06:52:35;;;;;;;12.82;4.18;;;22.00;96.90;;;;;;5025660;28;20038;-72
2023/05/19 06:55:01;;;;;;;11.82;4.68;;;22.10;96.80;;;;;;5028538;28;20036;-72
2023/05/19 06:57:26;;;;;;;11.02;4.10;;;21.90;96.30;;;;;;5018337;28;20029;-72
2023/05/19 06:59:52;;;;;;;12.43;4.90;;;21.80;96.70;;;;;;5031380;28;20026;-72
2023/05/19 07:02:18;;;;;;;12.02;4.47;;;21.80;96.70;;;;;;5016750;28;20052;-72
2023/05/19 07:04:43;;;;;;;12.40;4.57;;;22.00;96.40;;;;;;5021910;28;20034;-72
2023/05/19 07:07:09;;;;;;;12.57;4.40;;;21.90;96.30;;;;;;5025967;28;20667;-72
2023/05/19 07:09:35;;;;;;;15.52;5.07;;;21.80;96.30;;;;;;5046405;28;20116;-72
2023/05/19 07:12:00;;;;;;;12.88;4.85;;;21.70;96.40;;;;;;5028691;28;20100;-72
2023/05/19 07:14:26;;;;;;;15.10;4.60;;;21.90;96.00;;;;;;5018813;28;20498;-72
2023/05/19 07:16:52;;;;;;;14.18;4.20;;;22.30;95.80;;;;;;5014452;28;20072;-72
2023/05/19 07:19:18;;;;;;;21.38;6.03;;;22.40;95.50;;;;;;5022375;28;20440;-71
2023/05/19 07:21:44;;;;;;;12.25;3.97;;;22.70;95.50;;;;;;5017910;28;20076;-71
2023/05/19 07:24:10;;;;;;;15.45;4.57;;;23.00;94.90;;;;;;5025042;28;20392;-71
2023/05/19 07:26:36;;;;;;;11.18;4.38;;;23.10;94.70;;;;;;5032421;28;20033;-72
2023/05/19 07:29:01;;;;;;;11.57;4.22;;;23.20;95.00;;;;;;5020715;28;20144;-72
2023/05/19 07:31:27;;;;;;;12.23;4.40;;;23.40;94.60;;;;;;5030493;28;20041;-72
2023/05/19 07:33:53;;;;;;;13.10;4.90;;;23.40;94.20;;;;;;5016892;28;20390;-71
2023/05/19 07:36:18;;;;;;;13.38;5.00;;;23.20;94.50;;;;;;5034502;28;20033;-73
2023/05/19 07:38:45;;;;;;;11.68;4.45;;;22.80;94.90;;;;;;5025794;28;20060;-73
2023/05/19 07:41:11;;;;;;;11.77;4.53;;;22.50;94.90;;;;;;5028459;28;20060;-72
2023/05/19 07:43:36;;;;;;;13.27;4.63;;;22.10;95.10;;;;;;5017070;28;20351;-72
2023/05/19 07:46:02;;;;;;;12.80;3.90;;;21.60;95.60;;;;;;5015488;28;20417;-72
2023/05/19 07:48:28;;;;;;;10.00;4.25;;;21.30;95.30;;;;;;5022804;28;20559;-72
2023/05/19 07:50:54;;;;;;;8.95;4.00;;;21.00;95.10;;;;;;5019226;28;20041;-72
2023/05/19 07:53:21;;;;;;;8.98;3.90;;;20.90;95.20;;;;;;5020872;28;20100;-72
2023/05/19 07:55:47;;;;;;;12.93;3.97;;;20.80;94.70;;;;;;5023045;28;20025;-72
2023/05/19 07:58:13;;;;;;;13.05;3.72;;;20.80;94.60;;;;;;5015792;28;20496;-72
2023/05/19 08:00:39;;;;;;;14.13;4.22;;;20.90;94.20;;;;;;5019916;28;20033;-73
2023/05/19 08:03:06;;;;;;;10.80;3.55;;;21.40;93.60;;;;;;5017590;28;20104;-72
2023/05/19 08:05:34;;;;;;;8.65;3.53;;;22.00;92.20;;;;;;5015520;28;20057;-72
2023/05/19 08:08:00;;;;;;;8.25;3.22;;;22.60;92.00;;;;;;5017704;28;20029;-72
2023/05/19 08:10:25;;;;;;;10.98;3.30;;;23.20;91.50;;;;;;5013956;28;20528;-72
2023/05/19 08:12:51;;;;;;;6.72;3.30;;;24.00;90.10;;;;;;5030280;28;20101;-73
2023/05/19 08:15:17;;;;;;;10.68;3.28;;;24.60;89.00;;;;;;5017772;28;20478;-71
2023/05/19 08:17:43;;;;;;;12.85;3.95;;;25.10;88.10;;;;;;5018820;28;20449;-77
2023/05/19 08:20:09;;;;;;;9.07;3.35;;;25.90;85.40;;;;;;5018571;28;20116;-72
2023/05/19 08:22:35;;;;;;;9.35;3.67;;;26.80;83.70;;;;;;5016486;28;20051;-73
2023/05/19 08:25:02;;;;;;;10.63;3.63;;;27.50;81.60;;;;;;5018501;28;20114;-74
2023/05/19 08:27:28;;;;;;;11.45;3.53;;;28.20;80.60;;;;;;5025506;28;20499;-75
2023/05/19 08:29:54;;;;;;;11.02;3.45;;;29.10;76.70;;;;;;5028850;28;20038;-76
2023/05/19 08:32:26;;;;;;;10.10;3.35;;;29.70;76.50;;;;;;5014364;28;20430;-77
2023/05/19 08:34:51;;;;;;;8.85;3.28;;;30.30;73.70;;;;;;5040207;28;20067;-73
2023/05/19 08:37:17;;;;;;;8.93;3.45;;;30.40;71.60;;;;;;5017890;28;20030;-74
2023/05/19 08:39:42;;;;;;;11.15;3.33;;;30.20;71.30;;;;;;5029002;28;20454;-73
2023/05/19 08:42:08;;;;;;;11.63;3.47;;;30.10;70.40;;;;;;5018550;28;20072;-73
2023/05/19 08:44:38;;;;;;;10.95;2.83;;;30.20;71.00;;;;;;5025875;28;20108;-72
2023/05/19 08:47:06;;;;;;;9.27;3.03;;;30.70;69.40;;;;;;5026323;28;20051;-73
2023/05/19 08:49:35;;;;;;;11.80;3.28;;;31.10;68.10;;;;;;5016100;28;20033;-73
2023/05/19 08:52:08;;;;;;;9.80;3.20;;;31.00;67.80;;;;;;5017375;28;20092;-72
2023/05/19 08:54:45;;;;;;;10.20;3.05;;;31.00;67.40;;;;;;5015239;28;20064;-74
2023/05/19 08:57:11;;;;;;;9.63;3.03;;;31.50;66.90;;;;;;5026949;28;20022;-71
2023/05/19 08:59:39;;;;;;;9.57;3.22;;;32.00;66.10;;;;;;5024698;28;20022;-74
2023/05/19 09:02:07;;;;;;;9.75;3.10;;;32.10;64.80;;;;;;5018027;28;20532;-72
2023/05/19 09:04:32;;;;;;;7.45;3.10;;;32.20;64.10;;;;;;5023223;28;20036;-75
2023/05/19 09:07:02;;;;;;;6.45;2.50;;;32.40;64.30;;;;;;5024877;28;20033;-74
2023/05/19 09:09:29;;;;;;;10.38;3.35;;;32.60;63.30;;;;;;5031218;28;20034;-73
2023/05/19 09:11:54;;;;;;;9.80;2.90;;;33.00;62.80;;;;;;5032048;28;20048;-73
2023/05/19 09:14:21;;;;;;;10.55;2.95;;;33.10;63.30;;;;;;5032135;28;20037;-73
2023/05/19 09:16:49;;;;;;;9.32;2.58;;;33.40;62.20;;;;;;5020011;28;20371;-73
2023/05/19 09:19:15;;;;;;;10.20;2.92;;;33.50;61.10;;;;;;5017959;28;20033;-73
2023/05/19 09:21:41;;;;;;;7.82;2.50;;;33.50;60.60;;;;;;5019254;28;20121;-73
2023/05/19 09:24:08;;;;;;;7.05;2.55;;;33.30;60.30;;;;;;5031994;28;20113;-73
2023/05/19 09:26:38;;;;;;;5.38;2.20;;;33.20;60.40;;;;;;5022309;28;20478;-72
2023/05/19 09:29:15;;;;;;;7.45;2.47;;;32.90;60.50;;;;;;5025768;28;20088;-73
2023/05/19 09:31:54;;;;;;;8.23;2.58;;;32.30;60.10;;;;;;5003054;28;20034;-73
2023/05/19 09:34:22;;;;;;;8.25;2.95;;;32.00;60.90;;;;;;5019808;28;20049;-72
2023/05/19 09:36:48;;;;;;;7.28;2.58;;;32.10;61.20;;;;;;5016605;28;20037;-73
2023/05/19 09:39:18;;;;;;;7.63;3.38;;;32.20;60.60;;;;;;5022627;28;20046;-73
2023/05/19 09:41:45;;;;;;;7.07;2.65;;;32.60;61.20;;;;;;5026575;28;20492;-75
2023/05/19 09:44:27;;;;;;;10.02;3.00;;;33.00;60.80;;;;;;5025675;28;20038;-73
2023/05/19 09:47:02;;;;;;;8.65;3.40;;;32.70;61.20;;;;;;5025066;28;20033;-73
2023/05/19 09:49:29;;;;;;;11.77;3.03;;;32.00;61.40;;;;;;5015134;28;20093;-75
2023/05/19 09:51:56;;;;;;;9.48;2.90;;;31.30;60.10;;;;;;5025889;28;20084;-75
2023/05/19 09:54:23;;;;;;;6.50;2.50;;;30.80;60.50;;;;;;5017904;28;20041;-75
2023/05/19 09:56:58;;;;;;;7.95;2.67;;;30.60;60.80;;;;;;5013893;28;20050;-73
2023/05/19 09:59:25;;;;;;;6.13;2.75;;;30.40;60.80;;;;;;5022683;28;20030;-74
2023/05/19 10:01:55;;;;;;;9.55;3.17;;;30.70;61.70;;;;;;5011413;28;20038;-75
2023/05/19 10:04:26;;;;;;;11.93;3.42;;;30.60;62.00;;;;;;5019654;28;20121;-75
2023/05/19 10:06:53;;;;;;;10.90;3.30;;;30.30;62.20;;;;;;5020895;28;20033;-76
2023/05/19 10:09:25;;;;;;;8.25;2.88;;;30.30;61.70;;;;;;5013190;28;20267;-73
2023/05/19 10:11:52;;;;;;;11.48;2.95;;;30.60;61.50;;;;;;5016599;28;20030;-75
2023/05/19 10:14:28;;;;;;;12.95;3.35;;;31.30;60.10;;;;;;5025174;28;20532;-76
2023/05/19 10:16:57;;;;;;;10.43;4.63;;;31.10;60.00;;;;;;5020955;28;20057;-77
2023/05/19 10:19:27;;;;;;;8.75;2.85;;;31.00;59.70;;;;;;5017478;28;20076;-73
2023/05/19 10:21:56;;;;;;;11.60;4.68;;;30.90;59.80;;;;;;5022761;28;20029;-77
2023/05/19 10:24:26;;;;;;;10.07;2.60;;;31.10;59.30;;;;;;5016603;28;20084;-73
2023/05/19 10:27:04;;;;;;;15.23;2.90;;;30.90;58.10;;;;;;5017548;28;20050;-75
2023/05/19 10:29:33;;;;;;;8.98;2.90;;;30.60;58.60;;;;;;5015025;28;20021;-73
2023/05/19 10:32:09;;;;;;;9.20;3.13;;;30.40;59.20;;;;;;5016753;28;20116;-72
2023/05/19 10:35:02;;;;;;;11.90;4.20;;;30.70;59.00;;;;;;5016581;28;20022;-75
2023/05/19 10:37:44;;;;;;;13.27;3.45;;;31.40;58.00;;;;;;5021147;28;20021;-72
2023/05/19 10:40:54;;;;;;;9.98;3.40;;;31.80;57.70;;;;;;5011104;28;20046;-73
2023/05/19 10:43:19;;;;;;;7.13;2.72;;;31.50;58.50;;;;;;5014799;28;20081;-73
2023/05/19 10:45:48;;;;;;;7.53;2.60;;;31.30;57.30;;;;;;5029456;28;20057;-75
2023/05/19 10:48:19;;;;;;;13.18;3.45;;;31.20;58.00;;;;;;5026154;28;20032;-74
2023/05/19 10:50:45;;;;;;;14.27;3.58;;;31.30;58.00;;;;;;5039762;28;20034;-73
2023/05/19 10:53:16;;;;;;;10.20;3.10;;;31.50;58.10;;;;;;5033543;28;20524;-74
2023/05/19 10:55:49;;;;;;;10.43;2.70;;;31.30;58.60;;;;;;5018813;28;20145;-76
2023/05/19 10:58:15;;;;;;;13.63;3.20;;;30.70;59.00;;;;;;5029988;28;20022;-75
2023/05/19 11:00:40;;;;;;;8.68;2.97;;;30.50;57.90;;;;;;5023955;28;20048;-76
2023/05/19 11:03:15;;;;;;;8.68;2.65;;;30.50;58.00;;;;;;5022452;28;20386;-77
2023/05/19 11:05:44;;;;;;;6.55;2.47;;;30.70;57.20;;;;;;5030870;28;20081;-74
2023/05/19 11:08:10;;;;;;;10.30;2.88;;;30.40;56.90;;;;;;5015435;28;20060;-72
2023/05/19 11:10:37;;;;;;;6.82;2.80;;;30.10;57.50;;;;;;5014209;28;20166;-72
2023/05/19 11:13:03;;;;;;;9.57;3.10;;;30.30;57.80;;;;;;5021767;28;20029;-72
2023/05/19 11:15:33;;;;;;;9.82;2.80;;;30.10;58.40;;;;;;5027085;28;20482;-72
2023/05/19 11:18:00;;;;;;;9.15;3.42;;;30.50;58.50;;;;;;5020153;28;20025;-73
2023/05/19 11:20:27;;;;;;;8.48;2.58;;;30.90;56.90;;;;;;5020703;28;20034;-72
2023/05/19 11:23:09;;;;;;;7.70;2.50;;;31.10;56.60;;;;;;5020825;28;20091;-73
2023/05/19 11:25:41;;;;;;;;;;;31.10;56.20;;;;;;5020543;28;20113;-71
2023/05/19 11:28:09;;;;;;;5.00;2.72;;;30.40;55.60;;;;;;5018662;28;19975;-72
2023/05/19 11:30:35;;;;;;;8.98;2.35;;;29.50;57.60;;;;;;5021101;28;20119;-73
2023/05/19 11:33:01;;;;;;;9.60;2.42;;;29.60;57.00;;;;;;5014397;28;20114;-76
2023/05/19 11:35:28;;;;;;;7.88;2.65;;;30.00;56.90;;;;;;5027147;28;20116;-72
2023/05/19 11:37:53;;;;;;;10.80;3.22;;;30.10;56.60;;;;;;5040181;28;20527;-72
2023/05/19 11:40:20;;;;;;;6.65;2.67;;;29.90;56.40;;;;;;5024187;28;20046;-72
2023/05/19 11:42:46;;;;;;;9.23;2.47;;;29.90;56.30;;;;;;5025494;28;20064;-73
2023/05/19 11:45:11;;;;;;;11.70;2.83;;;30.00;55.50;;;;;;5021267;28;20053;-73
2023/05/19 11:47:37;;;;;;;7.75;2.22;;;30.10;55.50;;;;;;5014530;28;21672;-73
2023/05/19 11:50:03;;;;;;;6.95;2.22;;;30.30;55.10;;;;;;5027684;28;20026;-72
2023/05/19 11:52:29;;;;;;;6.65;2.20;;;29.90;54.30;;;;;;5020860;28;20041;-75
2023/05/19 11:54:59;;;;;;;8.98;2.67;;;29.50;54.40;;;;;;5030391;28;20424;-72
2023/05/19 11:57:25;;;;;;;7.07;2.28;;;29.00;55.70;;;;;;5016362;28;20036;-73
2023/05/19 11:59:52;;;;;;;5.72;2.38;;;28.90;54.70;;;;;;5023034;28;20383;-72
2023/05/19 12:02:20;;;;;;;6.10;2.13;;;29.10;54.10;;;;;;5019697;28;20018;-76
2023/05/19 12:04:47;;;;;;;7.57;2.47;;;29.40;52.40;;;;;;5014181;28;20047;-75
2023/05/19 12:07:18;;;;;;;6.75;2.22;;;29.70;51.80;;;;;;5014347;28;20032;-75
2023/05/19 12:09:45;;;;;;;10.63;1.87;;;29.70;52.40;;;;;;5021300;28;20022;-76
2023/05/19 12:12:14;;;;;;;5.95;2.10;;;29.70;52.60;;;;;;5037542;28;20464;-74
2023/05/19 12:14:41;;;;;;;5.70;2.20;;;30.00;52.10;;;;;;5022213;28;20029;-74
2023/05/19 12:17:14;;;;;;;5.13;2.05;;;30.10;51.80;;;;;;5019427;28;20382;-75
2023/05/19 12:19:43;;;;;;;2.92;1.90;;;30.20;50.50;;;;;;5021053;28;20041;-72
2023/05/19 12:22:09;;;;;;;5.97;2.15;;;29.80;48.40;;;;;;5021053;28;20050;-72
2023/05/19 12:24:36;;;;;;;5.97;2.20;;;29.40;50.00;;;;;;5014387;28;20097;-72
2023/05/19 12:27:06;;;;;;;4.45;1.92;;;29.50;50.50;;;;;;5014323;28;20029;-72
2023/05/19 12:29:31;;;;;;;10.85;2.47;;;29.90;50.90;;;;;;5027851;28;20068;-73
2023/05/19 12:31:57;;;;;;;16.67;2.67;;;30.10;50.70;;;;;;5018419;28;20065;-72
2023/05/19 12:34:23;;;;;;;5.88;2.22;;;30.50;50.60;;;;;;5014548;28;20080;-72
2023/05/19 12:36:48;;;;;;;6.50;2.15;;;30.70;49.70;;;;;;5014429;28;20032;-72
2023/05/19 12:39:14;;;;;;;7.28;2.78;;;30.40;49.40;;;;;;5009163;28;20084;-72
2023/05/19 12:41:43;;;;;;;5.47;2.55;;;30.00;50.40;;;;;;5015366;28;20096;-72
2023/05/19 12:44:15;;;;;;;7.15;2.47;;;29.40;51.80;;;;;;5005563;28;20026;-73
2023/05/19 12:46:42;;;;;;;7.65;2.63;;;28.50;52.50;;;;;;5016484;28;20045;-72
2023/05/19 12:49:08;;;;;;;9.10;2.50;;;27.90;54.20;;;;;;5026097;28;20072;-72